Terminal Aerodrome Forecast
Issued by NWS

Home | Current Version | Previous Version | Text Only | Print | Product List | Glossary On
Versions: 1 2 3 4 5 6 7 8 9 10 11 12 13 14 15 16 17 18 19 20 21 22 23 24
000
FTUS43 KMKX 301519 AAA
TAFENW
TAF AMD
KENW 301519Z 3015/3112 24005KT P6SM SCT150
     FM301700 25009KT P6SM BKN120
     FM310100 29005KT P6SM BKN070
     FM310400 30007KT P6SM OVC030
     FM310600 32011KT P6SM OVC025
     FM310800 33013G21KT P6SM BKN020
     FM311100 33017G29KT P6SM BKN015=

USA.gov is the U.S. government's official web portal to all federal, state and local government web resources and services.